Thomas Zafiras — SVCL8 — position and weather

sailwx.info

Track history (hours):
 
Tides and Currents Weather Stations Pressure Air Temp Water Temp Dewpoint Dewpoint Depression Visibility Wind Speed Wind Dir Waves Ship Positions

Thomas Zafiras

Last reported at 2018-Apr-19 16:50 UTC. Time now 2018-Apr-20 02:50 UTC.
Position N 29°44' W 095°08'.

Length 250 m; draft 12.1 m.

Type: Tanker. MMSI: 241456000.

Date/timePositionNaut miles runAvg speedWind from/ knotsBaromVisibWave heightAir tempDewpointWater temp
2018-Apr-19 16:50N 29°44' W 095°08'0 0.3
2018-Apr-19 16:31N 29°44' W 095°08'2 3.1
2018-Apr-19 16:00N 29°45' W 095°06'2 3.8
2018-Apr-19 15:31N 29°45' W 095°04'3 5.4
2018-Apr-19 15:00N 29°43' W 095°01'3 6.6
2018-Apr-19 14:30N 29°41' W 094°59'4 8.5
2018-Apr-19 14:00N 29°37' W 094°57'5 9.0
2018-Apr-19 13:30N 29°33' W 094°55'510.4
2018-Apr-19 13:00N 29°29' W 094°51'510.5
2018-Apr-19 12:30N 29°24' W 094°49'1910.2
2018-Apr-19 10:37N 29°13' W 094°30'3 6.8
2018-Apr-19 10:12N 29°11' W 094°32'3 1.0
2018-Apr-19 07:19N 29°12' W 094°36'0 0.0
2018-Apr-19 06:55N 29°12' W 094°36'0 0.0
2018-Apr-19 06:25N 29°12' W 094°36'0 0.0
2018-Apr-19 05:52N 29°12' W 094°36'0 0.0
2018-Apr-19 05:25N 29°12' W 094°36'0 0.0
2018-Apr-19 04:52N 29°12' W 094°36'0 0.0
2018-Apr-19 04:28N 29°12' W 094°36'0 0.0
2018-Apr-19 03:58N 29°12' W 094°36'0 0.0
2018-Apr-19 03:28N 29°12' W 094°36'0 0.0
2018-Apr-19 02:58N 29°12' W 094°36'0 0.0
2018-Apr-18 08:34N 29°12' W 094°36'0 0.0
2018-Apr-18 08:22N 29°12' W 094°36'0 0.0
2018-Apr-18 07:58N 29°12' W 094°36'0 0.0
2018-Apr-18 07:25N 29°12' W 094°36'0 0.0
2018-Apr-18 06:58N 29°12' W 094°36'0 0.0
2018-Apr-18 06:22N 29°12' W 094°36'0 0.0
2018-Apr-18 04:58N 29°12' W 094°36'0 0.0
2018-Apr-18 04:28N 29°12' W 094°36'0 0.0
2018-Apr-18 03:58N 29°12' W 094°36'0 0.0
2018-Apr-18 03:25N 29°12' W 094°36'0 0.0
2018-Apr-18 02:55N 29°12' W 094°36'0 0.0
2018-Apr-18 02:28N 29°12' W 094°36'0 0.0
2018-Apr-18 01:43N 29°12' W 094°36'0 0.0
2018-Apr-17 13:31N 29°12' W 094°36'0 0.3
2018-Apr-17 13:25N 29°12' W 094°36'0 0.0
2018-Apr-17 10:31N 29°12' W 094°36'0 0.1
2018-Apr-17 10:28N 29°12' W 094°36'0 0.0
2018-Apr-17 09:04N 29°12' W 094°36'0 0.0
2018-Apr-17 08:55N 29°12' W 094°36'0 0.0
2018-Apr-17 08:25N 29°12' W 094°36'0 0.0
2018-Apr-17 07:52N 29°12' W 094°36'0 0.0
2018-Apr-17 07:28N 29°12' W 094°36'0 0.0
2018-Apr-17 05:37N 29°12' W 094°36'0 0.1
2018-Apr-17 05:28N 29°12' W 094°36'0 0.1
2018-Apr-17 04:58N 29°12' W 094°36'0 0.0
2018-Apr-17 04:25N 29°12' W 094°36'0 0.0
2018-Apr-17 03:52N 29°12' W 094°36'0 0.0
2018-Apr-17 03:19N 29°12' W 094°36'21 1.4
2018-Apr-16 11:37N 28°52' W 094°26'  
Track history (hours):
 
Tides and Currents Weather Stations Pressure Air Temp Water Temp Dewpoint Dewpoint Depression Visibility Wind Speed Wind Dir Waves Ship Positions

Thomas Zafiras

Last reported at 2018-Apr-19 16:50 UTC. Time now 2018-Apr-20 02:50 UTC.
Position N 29°44' W 095°08'.

Length 250 m; draft 12.1 m.

Type: Tanker. MMSI: 241456000.

Date/timePositionNaut miles runAvg speedWind from/ knotsBaromVisibWave heightAir tempDewpointWater temp
2018-Apr-19 16:50N 29°44' W 095°08'0 0.3
2018-Apr-19 16:31N 29°44' W 095°08'2 3.1
2018-Apr-19 16:00N 29°45' W 095°06'2 3.8
2018-Apr-19 15:31N 29°45' W 095°04'3 5.4
2018-Apr-19 15:00N 29°43' W 095°01'3 6.6
2018-Apr-19 14:30N 29°41' W 094°59'4 8.5
2018-Apr-19 14:00N 29°37' W 094°57'5 9.0
2018-Apr-19 13:30N 29°33' W 094°55'510.4
2018-Apr-19 13:00N 29°29' W 094°51'510.5
2018-Apr-19 12:30N 29°24' W 094°49'1910.2
2018-Apr-19 10:37N 29°13' W 094°30'3 6.8
2018-Apr-19 10:12N 29°11' W 094°32'3 1.0
2018-Apr-19 07:19N 29°12' W 094°36'0 0.0
2018-Apr-19 06:55N 29°12' W 094°36'0 0.0
2018-Apr-19 06:25N 29°12' W 094°36'0 0.0
2018-Apr-19 05:52N 29°12' W 094°36'0 0.0
2018-Apr-19 05:25N 29°12' W 094°36'0 0.0
2018-Apr-19 04:52N 29°12' W 094°36'0 0.0
2018-Apr-19 04:28N 29°12' W 094°36'0 0.0
2018-Apr-19 03:58N 29°12' W 094°36'0 0.0
2018-Apr-19 03:28N 29°12' W 094°36'0 0.0
2018-Apr-19 02:58N 29°12' W 094°36'0 0.0
2018-Apr-18 08:34N 29°12' W 094°36'0 0.0
2018-Apr-18 08:22N 29°12' W 094°36'0 0.0
2018-Apr-18 07:58N 29°12' W 094°36'0 0.0
2018-Apr-18 07:25N 29°12' W 094°36'0 0.0
2018-Apr-18 06:58N 29°12' W 094°36'0 0.0
2018-Apr-18 06:22N 29°12' W 094°36'0 0.0
2018-Apr-18 04:58N 29°12' W 094°36'0 0.0
2018-Apr-18 04:28N 29°12' W 094°36'0 0.0
2018-Apr-18 03:58N 29°12' W 094°36'0 0.0
2018-Apr-18 03:25N 29°12' W 094°36'0 0.0
2018-Apr-18 02:55N 29°12' W 094°36'0 0.0
2018-Apr-18 02:28N 29°12' W 094°36'0 0.0
2018-Apr-18 01:43N 29°12' W 094°36'0 0.0
2018-Apr-17 13:31N 29°12' W 094°36'0 0.3
2018-Apr-17 13:25N 29°12' W 094°36'0 0.0
2018-Apr-17 10:31N 29°12' W 094°36'0 0.1
2018-Apr-17 10:28N 29°12' W 094°36'0 0.0
2018-Apr-17 09:04N 29°12' W 094°36'0 0.0
2018-Apr-17 08:55N 29°12' W 094°36'0 0.0
2018-Apr-17 08:25N 29°12' W 094°36'0 0.0
2018-Apr-17 07:52N 29°12' W 094°36'0 0.0
2018-Apr-17 07:28N 29°12' W 094°36'0 0.0
2018-Apr-17 05:37N 29°12' W 094°36'0 0.1
2018-Apr-17 05:28N 29°12' W 094°36'0 0.1
2018-Apr-17 04:58N 29°12' W 094°36'0 0.0
2018-Apr-17 04:25N 29°12' W 094°36'0 0.0
2018-Apr-17 03:52N 29°12' W 094°36'0 0.0
2018-Apr-17 03:19N 29°12' W 094°36'21 1.4
2018-Apr-16 11:37N 28°52' W 094°26'  

Dump ship's entire track history